Fallon, Nevada
Current Conditions -  °F | °C
As of 6:56 PM on Monday 22 Dec 2014 (Local Time) from KNFL Reporting Station
Few Clouds Few Clouds  
Wind Chill: 43°   Ceiling: Unl
Heat Index: 47°   Visibility: 10mi
Dew Point: 37°   Wind: 9mph
Humidity: 68%   Direction: 300°WNW
Pressure: 30.28"   Gusts: NA
Location:  39.47°N, 118.77°W
Report Text: KNFL 230256Z 30008KT 10SM FEW100 08/03 A3028 RMK AO2 SLP213 T00830028 53004
Loading
Personal Weather Stations






























Interactive Weather Map New forecast layout! Learn more

10-Day Weather Forecast

Advertisements
Track Severe Weather on mobile